sensor_id;sensor_type;location;lat;lon;timestamp;P1;durP1;ratioP1;P2;durP2;ratioP2
62037;SDS011;47991;42.974;12.082;2024-02-14T00:00:40;6.40;;;2.00;;
62037;SDS011;47991;42.974;12.082;2024-02-14T00:03:27;5.20;;;2.50;;
62037;SDS011;47991;42.974;12.082;2024-02-14T00:05:54;4.40;;;2.20;;
62037;SDS011;47991;42.974;12.082;2024-02-14T00:08:22;4.60;;;2.20;;
62037;SDS011;47991;42.974;12.082;2024-02-14T00:10:49;5.10;;;2.20;;
62037;SDS011;47991;42.974;12.082;2024-02-14T00:13:16;4.90;;;2.30;;
62037;SDS011;47991;42.974;12.082;2024-02-14T00:15:46;4.10;;;2.10;;
62037;SDS011;47991;42.974;12.082;2024-02-14T00:18:14;6.20;;;2.20;;
62037;SDS011;47991;42.974;12.082;2024-02-14T00:20:46;6.10;;;2.40;;
62037;SDS011;47991;42.974;12.082;2024-02-14T00:23:13;5.90;;;2.50;;
62037;SDS011;47991;42.974;12.082;2024-02-14T00:25:40;6.40;;;2.50;;
62037;SDS011;47991;42.974;12.082;2024-02-14T00:28:09;6.00;;;2.30;;
62037;SDS011;47991;42.974;12.082;2024-02-14T00:30:36;5.50;;;2.30;;
62037;SDS011;47991;42.974;12.082;2024-02-14T00:33:03;7.80;;;2.50;;
62037;SDS011;47991;42.974;12.082;2024-02-14T00:35:30;5.00;;;2.40;;
62037;SDS011;47991;42.974;12.082;2024-02-14T00:37:57;5.60;;;2.00;;
62037;SDS011;47991;42.974;12.082;2024-02-14T00:40:25;4.80;;;2.30;;
62037;SDS011;47991;42.974;12.082;2024-02-14T00:42:52;3.50;;;1.90;;
62037;SDS011;47991;42.974;12.082;2024-02-14T00:45:19;5.40;;;2.10;;
62037;SDS011;47991;42.974;12.082;2024-02-14T00:47:46;6.60;;;2.40;;
62037;SDS011;47991;42.974;12.082;2024-02-14T00:50:13;6.00;;;2.50;;
62037;SDS011;47991;42.974;12.082;2024-02-14T00:52:40;6.10;;;2.50;;
62037;SDS011;47991;42.974;12.082;2024-02-14T00:55:08;6.00;;;2.60;;
62037;SDS011;47991;42.974;12.082;2024-02-14T00:57:35;5.10;;;2.00;;
62037;SDS011;47991;42.974;12.082;2024-02-14T01:00:03;6.10;;;2.70;;
62037;SDS011;47991;42.974;12.082;2024-02-14T01:02:32;4.90;;;2.40;;
62037;SDS011;47991;42.974;12.082;2024-02-14T01:04:59;5.80;;;2.20;;
62037;SDS011;47991;42.974;12.082;2024-02-14T01:07:27;5.10;;;2.40;;
62037;SDS011;47991;42.974;12.082;2024-02-14T01:09:54;5.40;;;2.20;;
62037;SDS011;47991;42.974;12.082;2024-02-14T01:12:21;5.20;;;2.10;;
62037;SDS011;47991;42.974;12.082;2024-02-14T01:14:48;6.10;;;2.20;;
62037;SDS011;47991;42.974;12.082;2024-02-14T01:17:15;4.70;;;2.10;;
62037;SDS011;47991;42.974;12.082;2024-02-14T01:19:43;4.90;;;1.90;;
62037;SDS011;47991;42.974;12.082;2024-02-14T01:22:10;4.00;;;2.10;;
62037;SDS011;47991;42.974;12.082;2024-02-14T01:24:37;4.00;;;1.80;;
62037;SDS011;47991;42.974;12.082;2024-02-14T01:27:04;4.40;;;1.90;;
62037;SDS011;47991;42.974;12.082;2024-02-14T01:29:31;4.00;;;1.70;;
62037;SDS011;47991;42.974;12.082;2024-02-14T01:31:58;5.20;;;2.10;;
62037;SDS011;47991;42.974;12.082;2024-02-14T01:34:26;5.40;;;2.40;;
62037;SDS011;47991;42.974;12.082;2024-02-14T01:36:54;6.00;;;2.70;;
62037;SDS011;47991;42.974;12.082;2024-02-14T01:39:22;8.40;;;2.70;;
62037;SDS011;47991;42.974;12.082;2024-02-14T01:41:49;5.90;;;2.40;;
62037;SDS011;47991;42.974;12.082;2024-02-14T01:44:17;7.30;;;3.30;;
62037;SDS011;47991;42.974;12.082;2024-02-14T01:46:45;5.30;;;2.40;;
62037;SDS011;47991;42.974;12.082;2024-02-14T01:49:11;6.70;;;2.50;;
62037;SDS011;47991;42.974;12.082;2024-02-14T01:51:40;6.50;;;2.60;;
62037;SDS011;47991;42.974;12.082;2024-02-14T01:54:11;7.50;;;3.20;;
62037;SDS011;47991;42.974;12.082;2024-02-14T01:56:39;8.80;;;2.90;;
62037;SDS011;47991;42.974;12.082;2024-02-14T01:59:07;7.50;;;3.00;;
62037;SDS011;47991;42.974;12.082;2024-02-14T02:01:36;6.70;;;2.90;;
62037;SDS011;47991;42.974;12.082;2024-02-14T02:04:03;6.60;;;2.80;;
62037;SDS011;47991;42.974;12.082;2024-02-14T02:06:30;8.20;;;3.30;;
62037;SDS011;47991;42.974;12.082;2024-02-14T02:08:59;6.90;;;2.90;;
62037;SDS011;47991;42.974;12.082;2024-02-14T02:11:27;8.10;;;3.80;;
62037;SDS011;47991;42.974;12.082;2024-02-14T02:13:54;8.90;;;3.70;;
62037;SDS011;47991;42.974;12.082;2024-02-14T02:16:21;7.60;;;3.60;;
62037;SDS011;47991;42.974;12.082;2024-02-14T02:18:48;7.00;;;3.30;;
62037;SDS011;47991;42.974;12.082;2024-02-14T02:21:16;7.40;;;3.30;;
62037;SDS011;47991;42.974;12.082;2024-02-14T02:23:46;6.40;;;3.20;;
62037;SDS011;47991;42.974;12.082;2024-02-14T02:26:13;7.70;;;3.40;;
62037;SDS011;47991;42.974;12.082;2024-02-14T02:28:41;8.20;;;3.30;;
62037;SDS011;47991;42.974;12.082;2024-02-14T02:31:09;7.40;;;3.10;;
62037;SDS011;47991;42.974;12.082;2024-02-14T02:33:36;6.70;;;3.20;;
62037;SDS011;47991;42.974;12.082;2024-02-14T02:36:03;8.20;;;3.50;;
62037;SDS011;47991;42.974;12.082;2024-02-14T02:38:30;6.80;;;3.30;;
62037;SDS011;47991;42.974;12.082;2024-02-14T02:40:57;6.90;;;3.10;;
62037;SDS011;47991;42.974;12.082;2024-02-14T02:43:24;8.60;;;3.50;;
62037;SDS011;47991;42.974;12.082;2024-02-14T02:45:51;6.80;;;3.40;;
62037;SDS011;47991;42.974;12.082;2024-02-14T02:48:18;7.50;;;3.60;;
62037;SDS011;47991;42.974;12.082;2024-02-14T02:50:50;7.70;;;3.70;;
62037;SDS011;47991;42.974;12.082;2024-02-14T02:53:17;6.40;;;2.80;;
62037;SDS011;47991;42.974;12.082;2024-02-14T02:55:45;6.70;;;3.30;;
62037;SDS011;47991;42.974;12.082;2024-02-14T02:58:12;6.90;;;3.60;;
62037;SDS011;47991;42.974;12.082;2024-02-14T03:00:41;9.00;;;4.70;;
62037;SDS011;47991;42.974;12.082;2024-02-14T03:03:08;9.60;;;5.40;;
62037;SDS011;47991;42.974;12.082;2024-02-14T03:05:35;9.50;;;4.90;;
62037;SDS011;47991;42.974;12.082;2024-02-14T03:08:03;10.00;;;5.00;;
62037;SDS011;47991;42.974;12.082;2024-02-14T03:10:31;8.90;;;4.50;;
62037;SDS011;47991;42.974;12.082;2024-02-14T03:12:58;9.90;;;5.20;;
62037;SDS011;47991;42.974;12.082;2024-02-14T03:15:26;8.50;;;5.30;;
62037;SDS011;47991;42.974;12.082;2024-02-14T03:17:53;9.40;;;5.30;;
62037;SDS011;47991;42.974;12.082;2024-02-14T03:20:20;9.60;;;4.90;;
62037;SDS011;47991;42.974;12.082;2024-02-14T03:22:47;9.30;;;5.50;;
62037;SDS011;47991;42.974;12.082;2024-02-14T03:25:16;9.80;;;5.20;;
62037;SDS011;47991;42.974;12.082;2024-02-14T03:27:44;10.00;;;5.10;;
62037;SDS011;47991;42.974;12.082;2024-02-14T03:30:17;9.30;;;5.20;;
62037;SDS011;47991;42.974;12.082;2024-02-14T03:32:44;11.60;;;5.10;;
62037;SDS011;47991;42.974;12.082;2024-02-14T03:35:12;9.40;;;5.40;;
62037;SDS011;47991;42.974;12.082;2024-02-14T03:37:43;9.30;;;5.40;;
62037;SDS011;47991;42.974;12.082;2024-02-14T03:40:15;10.60;;;5.50;;
62037;SDS011;47991;42.974;12.082;2024-02-14T03:42:42;8.40;;;5.00;;
62037;SDS011;47991;42.974;12.082;2024-02-14T03:45:09;11.20;;;5.20;;
62037;SDS011;47991;42.974;12.082;2024-02-14T03:47:36;8.90;;;4.40;;
62037;SDS011;47991;42.974;12.082;2024-02-14T03:50:06;9.80;;;4.50;;
62037;SDS011;47991;42.974;12.082;2024-02-14T03:52:34;9.10;;;4.60;;
62037;SDS011;47991;42.974;12.082;2024-02-14T03:55:01;8.70;;;4.40;;
62037;SDS011;47991;42.974;12.082;2024-02-14T03:57:29;7.70;;;3.90;;
62037;SDS011;47991;42.974;12.082;2024-02-14T03:59:58;8.20;;;4.30;;
62037;SDS011;47991;42.974;12.082;2024-02-14T04:02:30;9.40;;;4.90;;
62037;SDS011;47991;42.974;12.082;2024-02-14T04:04:58;8.80;;;4.40;;
62037;SDS011;47991;42.974;12.082;2024-02-14T04:07:25;9.10;;;4.40;;
62037;SDS011;47991;42.974;12.082;2024-02-14T04:09:53;7.70;;;4.10;;
62037;SDS011;47991;42.974;12.082;2024-02-14T04:12:20;8.40;;;4.60;;
62037;SDS011;47991;42.974;12.082;2024-02-14T04:14:47;8.20;;;4.00;;
62037;SDS011;47991;42.974;12.082;2024-02-14T04:17:15;8.40;;;4.40;;
62037;SDS011;47991;42.974;12.082;2024-02-14T04:19:42;8.50;;;4.10;;
62037;SDS011;47991;42.974;12.082;2024-02-14T04:22:09;7.00;;;3.70;;
62037;SDS011;47991;42.974;12.082;2024-02-14T04:24:36;8.70;;;3.90;;
62037;SDS011;47991;42.974;12.082;2024-02-14T04:27:03;8.00;;;4.00;;
62037;SDS011;47991;42.974;12.082;2024-02-14T04:29:30;7.40;;;4.10;;
62037;SDS011;47991;42.974;12.082;2024-02-14T04:32:00;8.90;;;3.80;;
62037;SDS011;47991;42.974;12.082;2024-02-14T04:34:27;6.80;;;3.10;;
62037;SDS011;47991;42.974;12.082;2024-02-14T04:36:54;7.70;;;3.30;;
62037;SDS011;47991;42.974;12.082;2024-02-14T04:39:23;7.90;;;4.00;;
62037;SDS011;47991;42.974;12.082;2024-02-14T04:41:50;10.30;;;3.60;;
62037;SDS011;47991;42.974;12.082;2024-02-14T04:44:17;7.90;;;4.30;;
62037;SDS011;47991;42.974;12.082;2024-02-14T04:46:44;9.50;;;3.80;;
62037;SDS011;47991;42.974;12.082;2024-02-14T04:49:11;7.50;;;3.80;;
62037;SDS011;47991;42.974;12.082;2024-02-14T04:51:40;8.50;;;3.80;;
62037;SDS011;47991;42.974;12.082;2024-02-14T04:54:08;8.00;;;4.10;;
62037;SDS011;47991;42.974;12.082;2024-02-14T04:56:36;7.60;;;3.70;;
62037;SDS011;47991;42.974;12.082;2024-02-14T04:59:03;7.90;;;3.60;;
62037;SDS011;47991;42.974;12.082;2024-02-14T05:01:31;7.50;;;3.60;;
62037;SDS011;47991;42.974;12.082;2024-02-14T05:03:58;8.60;;;4.10;;
62037;SDS011;47991;42.974;12.082;2024-02-14T05:06:26;8.90;;;4.30;;
62037;SDS011;47991;42.974;12.082;2024-02-14T05:08:53;8.70;;;3.30;;
62037;SDS011;47991;42.974;12.082;2024-02-14T05:11:20;8.00;;;3.90;;
62037;SDS011;47991;42.974;12.082;2024-02-14T05:13:47;9.20;;;4.20;;
62037;SDS011;47991;42.974;12.082;2024-02-14T05:16:18;7.80;;;3.40;;
62037;SDS011;47991;42.974;12.082;2024-02-14T05:18:46;7.10;;;3.40;;
62037;SDS011;47991;42.974;12.082;2024-02-14T05:21:14;7.90;;;3.40;;
62037;SDS011;47991;42.974;12.082;2024-02-14T05:23:41;8.50;;;4.40;;
62037;SDS011;47991;42.974;12.082;2024-02-14T05:26:08;8.40;;;3.90;;
62037;SDS011;47991;42.974;12.082;2024-02-14T05:28:35;7.70;;;4.10;;
62037;SDS011;47991;42.974;12.082;2024-02-14T05:31:02;6.30;;;3.20;;
62037;SDS011;47991;42.974;12.082;2024-02-14T05:33:30;7.60;;;3.60;;
62037;SDS011;47991;42.974;12.082;2024-02-14T05:35:57;8.50;;;4.60;;
62037;SDS011;47991;42.974;12.082;2024-02-14T05:38:24;7.80;;;3.90;;
62037;SDS011;47991;42.974;12.082;2024-02-14T05:40:50;8.30;;;4.50;;
62037;SDS011;47991;42.974;12.082;2024-02-14T05:43:17;9.90;;;4.70;;
62037;SDS011;47991;42.974;12.082;2024-02-14T05:45:45;9.60;;;4.90;;
62037;SDS011;47991;42.974;12.082;2024-02-14T05:48:12;8.40;;;4.00;;
62037;SDS011;47991;42.974;12.082;2024-02-14T05:50:41;7.60;;;3.80;;
62037;SDS011;47991;42.974;12.082;2024-02-14T05:53:08;8.50;;;3.90;;
62037;SDS011;47991;42.974;12.082;2024-02-14T05:55:35;7.50;;;3.70;;
62037;SDS011;47991;42.974;12.082;2024-02-14T05:58:02;8.40;;;4.10;;
62037;SDS011;47991;42.974;12.082;2024-02-14T06:00:29;8.80;;;4.40;;
62037;SDS011;47991;42.974;12.082;2024-02-14T06:02:57;9.70;;;4.60;;
62037;SDS011;47991;42.974;12.082;2024-02-14T06:05:23;9.40;;;4.00;;
62037;SDS011;47991;42.974;12.082;2024-02-14T06:07:51;8.80;;;3.90;;
62037;SDS011;47991;42.974;12.082;2024-02-14T06:10:18;8.40;;;4.00;;
62037;SDS011;47991;42.974;12.082;2024-02-14T06:12:45;8.00;;;4.30;;
62037;SDS011;47991;42.974;12.082;2024-02-14T06:15:14;8.40;;;4.20;;
62037;SDS011;47991;42.974;12.082;2024-02-14T06:17:41;8.90;;;4.30;;
62037;SDS011;47991;42.974;12.082;2024-02-14T06:20:09;9.70;;;4.70;;
62037;SDS011;47991;42.974;12.082;2024-02-14T06:22:37;8.90;;;4.50;;
62037;SDS011;47991;42.974;12.082;2024-02-14T06:25:04;10.10;;;5.40;;
62037;SDS011;47991;42.974;12.082;2024-02-14T06:27:32;9.40;;;5.20;;
62037;SDS011;47991;42.974;12.082;2024-02-14T06:29:59;8.90;;;4.60;;
62037;SDS011;47991;42.974;12.082;2024-02-14T06:32:28;10.60;;;5.80;;
62037;SDS011;47991;42.974;12.082;2024-02-14T06:34:55;10.80;;;5.60;;
62037;SDS011;47991;42.974;12.082;2024-02-14T06:37:22;9.20;;;5.20;;
62037;SDS011;47991;42.974;12.082;2024-02-14T06:39:49;9.30;;;5.00;;
62037;SDS011;47991;42.974;12.082;2024-02-14T06:42:16;11.10;;;5.80;;
62037;SDS011;47991;42.974;12.082;2024-02-14T06:44:44;9.50;;;4.40;;
62037;SDS011;47991;42.974;12.082;2024-02-14T06:47:11;8.40;;;4.40;;
62037;SDS011;47991;42.974;12.082;2024-02-14T06:49:38;10.60;;;4.70;;
62037;SDS011;47991;42.974;12.082;2024-02-14T06:52:05;9.70;;;4.90;;
62037;SDS011;47991;42.974;12.082;2024-02-14T06:54:32;10.40;;;5.10;;
62037;SDS011;47991;42.974;12.082;2024-02-14T06:57:00;9.00;;;4.80;;
62037;SDS011;47991;42.974;12.082;2024-02-14T06:59:27;9.80;;;4.30;;
62037;SDS011;47991;42.974;12.082;2024-02-14T07:01:55;9.70;;;4.60;;
62037;SDS011;47991;42.974;12.082;2024-02-14T07:04:22;8.80;;;4.30;;
62037;SDS011;47991;42.974;12.082;2024-02-14T07:06:55;7.20;;;3.90;;
62037;SDS011;47991;42.974;12.082;2024-02-14T07:16:30;8.00;;;4.60;;
62037;SDS011;47991;42.974;12.082;2024-02-14T07:18:57;8.40;;;4.40;;
62037;SDS011;47991;42.974;12.082;2024-02-14T07:21:24;9.00;;;4.50;;
62037;SDS011;47991;42.974;12.082;2024-02-14T07:23:51;9.70;;;5.10;;
62037;SDS011;47991;42.974;12.082;2024-02-14T07:26:20;10.50;;;4.90;;
62037;SDS011;47991;42.974;12.082;2024-02-14T07:28:47;9.40;;;4.40;;
62037;SDS011;47991;42.974;12.082;2024-02-14T07:31:14;8.80;;;4.30;;
62037;SDS011;47991;42.974;12.082;2024-02-14T07:33:43;8.10;;;4.20;;
62037;SDS011;47991;42.974;12.082;2024-02-14T07:36:10;9.90;;;3.80;;
62037;SDS011;47991;42.974;12.082;2024-02-14T07:38:37;9.10;;;4.40;;
62037;SDS011;47991;42.974;12.082;2024-02-14T07:41:04;8.10;;;4.10;;
62037;SDS011;47991;42.974;12.082;2024-02-14T07:43:31;7.70;;;3.80;;
62037;SDS011;47991;42.974;12.082;2024-02-14T07:45:58;8.40;;;4.80;;
62037;SDS011;47991;42.974;12.082;2024-02-14T07:48:26;7.80;;;3.90;;
62037;SDS011;47991;42.974;12.082;2024-02-14T07:50:54;7.90;;;3.60;;
62037;SDS011;47991;42.974;12.082;2024-02-14T07:53:22;9.10;;;3.80;;
62037;SDS011;47991;42.974;12.082;2024-02-14T07:55:49;8.80;;;3.70;;
62037;SDS011;47991;42.974;12.082;2024-02-14T07:58:16;7.90;;;4.10;;
62037;SDS011;47991;42.974;12.082;2024-02-14T08:00:43;9.50;;;5.20;;
62037;SDS011;47991;42.974;12.082;2024-02-14T08:03:10;10.90;;;6.00;;
62037;SDS011;47991;42.974;12.082;2024-02-14T08:05:38;12.30;;;5.70;;
62037;SDS011;47991;42.974;12.082;2024-02-14T08:08:05;10.40;;;5.70;;
62037;SDS011;47991;42.974;12.082;2024-02-14T08:10:32;12.10;;;6.30;;
62037;SDS011;47991;42.974;12.082;2024-02-14T08:12:59;11.50;;;6.00;;
62037;SDS011;47991;42.974;12.082;2024-02-14T08:15:26;13.10;;;6.00;;
62037;SDS011;47991;42.974;12.082;2024-02-14T08:17:53;11.30;;;6.20;;
62037;SDS011;47991;42.974;12.082;2024-02-14T08:20:22;12.30;;;6.10;;
62037;SDS011;47991;42.974;12.082;2024-02-14T08:22:50;10.20;;;6.50;;
62037;SDS011;47991;42.974;12.082;2024-02-14T08:25:17;11.40;;;6.10;;
62037;SDS011;47991;42.974;12.082;2024-02-14T08:27:44;9.60;;;5.60;;
62037;SDS011;47991;42.974;12.082;2024-02-14T08:30:12;10.90;;;6.20;;
62037;SDS011;47991;42.974;12.082;2024-02-14T08:32:39;16.50;;;6.90;;
62037;SDS011;47991;42.974;12.082;2024-02-14T08:35:06;11.40;;;6.60;;
62037;SDS011;47991;42.974;12.082;2024-02-14T08:37:36;11.40;;;6.50;;
62037;SDS011;47991;42.974;12.082;2024-02-14T08:40:05;12.60;;;6.60;;
62037;SDS011;47991;42.974;12.082;2024-02-14T08:42:33;13.70;;;6.40;;
62037;SDS011;47991;42.974;12.082;2024-02-14T08:45:01;12.10;;;6.20;;
62037;SDS011;47991;42.974;12.082;2024-02-14T08:47:28;13.10;;;6.10;;
62037;SDS011;47991;42.974;12.082;2024-02-14T08:49:55;11.50;;;6.30;;
62037;SDS011;47991;42.974;12.082;2024-02-14T08:52:22;13.80;;;7.40;;
62037;SDS011;47991;42.974;12.082;2024-02-14T08:54:49;12.00;;;6.60;;
62037;SDS011;47991;42.974;12.082;2024-02-14T08:57:16;11.20;;;6.30;;
62037;SDS011;47991;42.974;12.082;2024-02-14T08:59:45;11.50;;;7.00;;
62037;SDS011;47991;42.974;12.082;2024-02-14T09:02:15;12.80;;;7.80;;
62037;SDS011;47991;42.974;12.082;2024-02-14T09:04:43;13.50;;;7.30;;
62037;SDS011;47991;42.974;12.082;2024-02-14T09:07:11;15.70;;;7.80;;
62037;SDS011;47991;42.974;12.082;2024-02-14T09:09:39;11.90;;;7.30;;
62037;SDS011;47991;42.974;12.082;2024-02-14T09:12:06;10.50;;;6.30;;
62037;SDS011;47991;42.974;12.082;2024-02-14T09:14:34;15.70;;;8.20;;
62037;SDS011;47991;42.974;12.082;2024-02-14T09:17:02;13.20;;;7.50;;
62037;SDS011;47991;42.974;12.082;2024-02-14T09:19:30;11.60;;;6.70;;
62037;SDS011;47991;42.974;12.082;2024-02-14T09:21:57;12.10;;;6.60;;
62037;SDS011;47991;42.974;12.082;2024-02-14T09:24:24;13.00;;;6.40;;
62037;SDS011;47991;42.974;12.082;2024-02-14T09:26:51;14.60;;;7.10;;
62037;SDS011;47991;42.974;12.082;2024-02-14T09:29:18;11.40;;;5.70;;
62037;SDS011;47991;42.974;12.082;2024-02-14T09:31:45;15.50;;;6.10;;
62037;SDS011;47991;42.974;12.082;2024-02-14T09:34:15;11.10;;;7.30;;
62037;SDS011;47991;42.974;12.082;2024-02-14T09:36:45;11.70;;;7.30;;
62037;SDS011;47991;42.974;12.082;2024-02-14T09:39:16;12.10;;;7.10;;
62037;SDS011;47991;42.974;12.082;2024-02-14T09:41:46;11.00;;;6.90;;
62037;SDS011;47991;42.974;12.082;2024-02-14T09:44:20;11.00;;;6.90;;
62037;SDS011;47991;42.974;12.082;2024-02-14T09:46:48;11.90;;;6.70;;
62037;SDS011;47991;42.974;12.082;2024-02-14T09:49:16;12.10;;;6.90;;
62037;SDS011;47991;42.974;12.082;2024-02-14T09:51:45;11.40;;;6.90;;
62037;SDS011;47991;42.974;12.082;2024-02-14T09:54:14;12.10;;;6.60;;
62037;SDS011;47991;42.974;12.082;2024-02-14T09:56:45;12.20;;;6.30;;
62037;SDS011;47991;42.974;12.082;2024-02-14T09:59:17;11.10;;;6.00;;
62037;SDS011;47991;42.974;12.082;2024-02-14T10:01:44;9.80;;;6.00;;
62037;SDS011;47991;42.974;12.082;2024-02-14T10:04:12;11.80;;;6.00;;
62037;SDS011;47991;42.974;12.082;2024-02-14T10:06:40;12.00;;;6.40;;
62037;SDS011;47991;42.974;12.082;2024-02-14T10:09:07;10.80;;;5.80;;
62037;SDS011;47991;42.974;12.082;2024-02-14T10:11:37;13.90;;;6.60;;
62037;SDS011;47991;42.974;12.082;2024-02-14T10:14:04;12.10;;;6.30;;
62037;SDS011;47991;42.974;12.082;2024-02-14T10:16:35;9.60;;;5.50;;
62037;SDS011;47991;42.974;12.082;2024-02-14T10:19:04;10.20;;;5.60;;
62037;SDS011;47991;42.974;12.082;2024-02-14T10:21:31;9.40;;;4.90;;
62037;SDS011;47991;42.974;12.082;2024-02-14T10:24:00;7.70;;;4.20;;
62037;SDS011;47991;42.974;12.082;2024-02-14T10:26:30;6.90;;;3.50;;
62037;SDS011;47991;42.974;12.082;2024-02-14T10:28:58;7.20;;;3.20;;
62037;SDS011;47991;42.974;12.082;2024-02-14T10:31:26;7.20;;;3.70;;
62037;SDS011;47991;42.974;12.082;2024-02-14T10:33:56;9.30;;;4.40;;
62037;SDS011;47991;42.974;12.082;2024-02-14T10:36:23;8.40;;;4.10;;
62037;SDS011;47991;42.974;12.082;2024-02-14T10:38:50;8.60;;;4.20;;
62037;SDS011;47991;42.974;12.082;2024-02-14T10:41:18;7.90;;;4.70;;
62037;SDS011;47991;42.974;12.082;2024-02-14T10:43:45;8.30;;;4.20;;
62037;SDS011;47991;42.974;12.082;2024-02-14T10:46:15;8.20;;;3.80;;
62037;SDS011;47991;42.974;12.082;2024-02-14T10:48:53;7.80;;;4.50;;
62037;SDS011;47991;42.974;12.082;2024-02-14T10:51:25;8.30;;;4.50;;
62037;SDS011;47991;42.974;12.082;2024-02-14T10:53:57;8.80;;;4.50;;
62037;SDS011;47991;42.974;12.082;2024-02-14T10:56:27;9.40;;;4.60;;
62037;SDS011;47991;42.974;12.082;2024-02-14T10:58:56;8.30;;;4.20;;
62037;SDS011;47991;42.974;12.082;2024-02-14T11:01:29;7.30;;;4.00;;
62037;SDS011;47991;42.974;12.082;2024-02-14T11:03:59;7.30;;;3.50;;
62037;SDS011;47991;42.974;12.082;2024-02-14T11:06:27;6.80;;;3.30;;
62037;SDS011;47991;42.974;12.082;2024-02-14T11:09:01;9.00;;;4.10;;
62037;SDS011;47991;42.974;12.082;2024-02-14T11:11:34;8.80;;;3.60;;
62037;SDS011;47991;42.974;12.082;2024-02-14T11:14:01;5.80;;;2.60;;
62037;SDS011;47991;42.974;12.082;2024-02-14T11:16:30;6.60;;;2.80;;
62037;SDS011;47991;42.974;12.082;2024-02-14T11:19:09;6.70;;;2.90;;
62037;SDS011;47991;42.974;12.082;2024-02-14T11:21:41;4.90;;;2.30;;
62037;SDS011;47991;42.974;12.082;2024-02-14T11:24:10;4.70;;;2.10;;
62037;SDS011;47991;42.974;12.082;2024-02-14T11:26:47;5.80;;;2.90;;
62037;SDS011;47991;42.974;12.082;2024-02-14T11:29:17;4.70;;;2.30;;
62037;SDS011;47991;42.974;12.082;2024-02-14T11:31:45;6.90;;;2.50;;
62037;SDS011;47991;42.974;12.082;2024-02-14T11:34:14;5.60;;;2.80;;
62037;SDS011;47991;42.974;12.082;2024-02-14T11:36:42;3.80;;;2.10;;
62037;SDS011;47991;42.974;12.082;2024-02-14T11:39:11;6.40;;;2.60;;
62037;SDS011;47991;42.974;12.082;2024-02-14T11:41:38;7.30;;;3.10;;
62037;SDS011;47991;42.974;12.082;2024-02-14T11:44:05;6.70;;;3.70;;
62037;SDS011;47991;42.974;12.082;2024-02-14T11:46:33;7.50;;;3.90;;
62037;SDS011;47991;42.974;12.082;2024-02-14T11:49:02;7.30;;;3.70;;
62037;SDS011;47991;42.974;12.082;2024-02-14T11:51:30;6.20;;;3.30;;
62037;SDS011;47991;42.974;12.082;2024-02-14T11:53:59;7.30;;;4.00;;
62037;SDS011;47991;42.974;12.082;2024-02-14T11:56:32;6.30;;;3.20;;
62037;SDS011;47991;42.974;12.082;2024-02-14T11:59:03;6.80;;;3.50;;
62037;SDS011;47991;42.974;12.082;2024-02-14T12:01:31;8.40;;;3.50;;
62037;SDS011;47991;42.974;12.082;2024-02-14T12:04:07;6.00;;;2.80;;
62037;SDS011;47991;42.974;12.082;2024-02-14T12:06:38;6.50;;;3.40;;
62037;SDS011;47991;42.974;12.082;2024-02-14T12:09:09;7.20;;;2.90;;
62037;SDS011;47991;42.974;12.082;2024-02-14T12:11:39;6.50;;;2.80;;
62037;SDS011;47991;42.974;12.082;2024-02-14T12:14:10;6.20;;;3.30;;
62037;SDS011;47991;42.974;12.082;2024-02-14T12:16:38;6.20;;;2.50;;
62037;SDS011;47991;42.974;12.082;2024-02-14T12:19:07;4.20;;;2.10;;
62037;SDS011;47991;42.974;12.082;2024-02-14T12:21:39;4.60;;;1.90;;
62037;SDS011;47991;42.974;12.082;2024-02-14T12:24:07;3.10;;;1.40;;
62037;SDS011;47991;42.974;12.082;2024-02-14T12:26:35;2.30;;;1.40;;
62037;SDS011;47991;42.974;12.082;2024-02-14T12:29:04;4.10;;;1.80;;
62037;SDS011;47991;42.974;12.082;2024-02-14T12:31:33;3.20;;;1.60;;
62037;SDS011;47991;42.974;12.082;2024-02-14T12:34:01;2.60;;;1.50;;
62037;SDS011;47991;42.974;12.082;2024-02-14T12:36:31;3.00;;;1.80;;
62037;SDS011;47991;42.974;12.082;2024-02-14T12:39:00;3.40;;;1.70;;
62037;SDS011;47991;42.974;12.082;2024-02-14T12:41:29;5.40;;;2.20;;
62037;SDS011;47991;42.974;12.082;2024-02-14T12:43:57;5.00;;;1.70;;
62037;SDS011;47991;42.974;12.082;2024-02-14T12:46:25;3.90;;;1.50;;
62037;SDS011;47991;42.974;12.082;2024-02-14T12:48:53;2.30;;;1.50;;
62037;SDS011;47991;42.974;12.082;2024-02-14T12:51:21;4.60;;;1.70;;
62037;SDS011;47991;42.974;12.082;2024-02-14T12:53:48;4.20;;;1.70;;
62037;SDS011;47991;42.974;12.082;2024-02-14T12:56:15;2.30;;;1.50;;
62037;SDS011;47991;42.974;12.082;2024-02-14T12:58:42;3.80;;;1.90;;
62037;SDS011;47991;42.974;12.082;2024-02-14T13:01:11;4.00;;;2.00;;
62037;SDS011;47991;42.974;12.082;2024-02-14T13:03:38;2.70;;;1.50;;
62037;SDS011;47991;42.974;12.082;2024-02-14T13:06:05;3.20;;;1.70;;
62037;SDS011;47991;42.974;12.082;2024-02-14T13:08:32;3.00;;;1.70;;
62037;SDS011;47991;42.974;12.082;2024-02-14T13:10:59;3.80;;;1.70;;
62037;SDS011;47991;42.974;12.082;2024-02-14T13:13:26;3.60;;;1.80;;
62037;SDS011;47991;42.974;12.082;2024-02-14T13:15:56;2.90;;;1.70;;
62037;SDS011;47991;42.974;12.082;2024-02-14T13:18:23;2.80;;;1.50;;
62037;SDS011;47991;42.974;12.082;2024-02-14T13:20:52;4.50;;;1.70;;
62037;SDS011;47991;42.974;12.082;2024-02-14T13:23:26;2.40;;;1.40;;
62037;SDS011;47991;42.974;12.082;2024-02-14T13:25:53;4.10;;;2.00;;
62037;SDS011;47991;42.974;12.082;2024-02-14T13:28:20;3.50;;;1.80;;
62037;SDS011;47991;42.974;12.082;2024-02-14T13:30:47;3.60;;;1.70;;
62037;SDS011;47991;42.974;12.082;2024-02-14T13:33:14;2.40;;;1.50;;
62037;SDS011;47991;42.974;12.082;2024-02-14T13:35:41;3.00;;;1.40;;
62037;SDS011;47991;42.974;12.082;2024-02-14T13:38:08;4.40;;;1.50;;
62037;SDS011;47991;42.974;12.082;2024-02-14T13:40:37;3.00;;;1.50;;
62037;SDS011;47991;42.974;12.082;2024-02-14T13:43:04;3.60;;;1.40;;
62037;SDS011;47991;42.974;12.082;2024-02-14T13:45:41;2.40;;;1.40;;
62037;SDS011;47991;42.974;12.082;2024-02-14T13:48:09;2.50;;;1.40;;
62037;SDS011;47991;42.974;12.082;2024-02-14T13:50:37;2.90;;;1.30;;
62037;SDS011;47991;42.974;12.082;2024-02-14T13:53:05;3.10;;;1.60;;
62037;SDS011;47991;42.974;12.082;2024-02-14T13:55:33;3.10;;;1.70;;
62037;SDS011;47991;42.974;12.082;2024-02-14T13:58:00;4.10;;;1.70;;
62037;SDS011;47991;42.974;12.082;2024-02-14T14:00:27;3.00;;;1.60;;
62037;SDS011;47991;42.974;12.082;2024-02-14T14:02:54;4.90;;;1.60;;
62037;SDS011;47991;42.974;12.082;2024-02-14T14:05:22;3.00;;;1.60;;
62037;SDS011;47991;42.974;12.082;2024-02-14T14:07:49;2.00;;;1.40;;
62037;SDS011;47991;42.974;12.082;2024-02-14T14:10:16;3.70;;;1.60;;
62037;SDS011;47991;42.974;12.082;2024-02-14T14:12:44;3.50;;;1.50;;
62037;SDS011;47991;42.974;12.082;2024-02-14T14:15:11;3.10;;;1.50;;
62037;SDS011;47991;42.974;12.082;2024-02-14T14:17:38;3.00;;;1.50;;
62037;SDS011;47991;42.974;12.082;2024-02-14T14:20:05;4.40;;;1.80;;
62037;SDS011;47991;42.974;12.082;2024-02-14T14:22:34;4.20;;;1.80;;
62037;SDS011;47991;42.974;12.082;2024-02-14T14:25:01;3.20;;;1.60;;
62037;SDS011;47991;42.974;12.082;2024-02-14T14:27:29;3.20;;;1.60;;
62037;SDS011;47991;42.974;12.082;2024-02-14T14:29:56;5.50;;;1.90;;
62037;SDS011;47991;42.974;12.082;2024-02-14T14:32:23;3.80;;;1.80;;
62037;SDS011;47991;42.974;12.082;2024-02-14T14:34:50;6.00;;;1.90;;
62037;SDS011;47991;42.974;12.082;2024-02-14T14:37:17;3.80;;;1.70;;
62037;SDS011;47991;42.974;12.082;2024-02-14T14:39:44;3.90;;;2.10;;
62037;SDS011;47991;42.974;12.082;2024-02-14T14:42:11;3.70;;;1.80;;